This is the latest recevied weather packets stored in our database for station/object AJ7DN. If no packets are shown the sender has not sent any weather packets the latest 10 day(s).
| Time | Temp. | Humidity | Pressure | Rain* | Wind** | Luminosity | Snow |
|---|---|---|---|---|---|---|---|
| 1777877041 | 21.11° C | 52% | 1012.2 hPa | 0 mm | - | 0 W/m² | - |
| 1777876738 | 21.67° C | 51% | 1012.3 hPa | 0 mm | - | 0 W/m² | - |
| 1777876436 | 22.22° C | 48% | 1012.3 hPa | 0 mm | - | 0 W/m² | - |
| 1777876131 | 23.33° C | 43% | 1012 hPa | 0 mm | - | 0 W/m² | - |
| 1777875828 | 23.89° C | 40% | 1012.1 hPa | 0 mm | - | 0 W/m² | - |
| 1777875524 | 24.44° C | 38% | 1012 hPa | 0 mm | - | 0 W/m² | - |
| 1777875221 | 24.44° C | 37% | 1011.9 hPa | 0 mm | - | 0 W/m² | - |
| 1777874918 | 25° C | 37% | 1012.1 hPa | 0 mm | - | 0 W/m² | - |
| 1777874613 | 25° C | 37% | 1011.9 hPa | 0 mm | - | 0 W/m² | - |
| 1777874312 | 25° C | 38% | 1012 hPa | 0 mm | - | 0 W/m² | - |
| 1777874009 | 25° C | 38% | 1011.9 hPa | 0 mm | - | 0 W/m² | - |
| 1777873707 | 25° C | 38% | 1012.1 hPa | 0 mm | - | 0 W/m² | - |
| 1777873404 | 25° C | 37% | 1011.9 hPa | 0 mm | - | 0 W/m² | - |
| 1777873100 | 25° C | 37% | 1012 hPa | 0 mm | - | 0 W/m² | - |
| 1777872796 | 25° C | 38% | 1011.9 hPa | 0 mm | - | 0 W/m² | - |
| 1777872494 | 25° C | 38% | 1012.2 hPa | 0 mm | - | 0 W/m² | - |
| 1777872192 | 25° C | 39% | 1011.9 hPa | 0 mm | - | 0 W/m² | - |
| 1777871889 | 25° C | 40% | 1011.7 hPa | 0 mm | - | 0 W/m² | - |
| 1777871585 | 25° C | 40% | 1011.8 hPa | 0 mm | - | 0 W/m² | - |
| 1777871281 | 25° C | 40% | 1011.7 hPa | 0 mm | - | 0 W/m² | - |
| 1777870979 | 25° C | 40% | 1011.6 hPa | 0 mm | - | 0 W/m² | - |
| 1777870677 | 25° C | 41% | 1011.5 hPa | 0 mm | - | 0 W/m² | - |
| 1777870376 | 25° C | 41% | 1011.6 hPa | 0 mm | - | 0 W/m² | - |
| 1777870074 | 25° C | 42% | 1011.5 hPa | 0 mm | - | 0 W/m² | - |
| 1777869772 | 25° C | 42% | 1011.5 hPa | 0 mm | - | 0 W/m² | - |
* Rain latest hour (hover to see other rain measurements)
** Current wind speed in m/s (hover to see current wind gust speed)